sensor_id;sensor_type;location;lat;lon;timestamp;pressure;altitude;pressure_sealevel;temperature;humidity
5872;BME280;2962;51.312;7.378;2024-03-07T00:02:08;98221.19;;;2.42;100.00
5872;BME280;2962;51.312;7.378;2024-03-07T00:04:33;98219.97;;;2.49;100.00
5872;BME280;2962;51.312;7.378;2024-03-07T00:07:01;98227.97;;;2.54;100.00
5872;BME280;2962;51.312;7.378;2024-03-07T00:09:29;98228.25;;;2.38;100.00
5872;BME280;2962;51.312;7.378;2024-03-07T00:11:54;98214.84;;;2.19;100.00
5872;BME280;2962;51.312;7.378;2024-03-07T00:14:19;98231.31;;;2.32;100.00
5872;BME280;2962;51.312;7.378;2024-03-07T00:16:46;98235.38;;;2.29;100.00
5872;BME280;2962;51.312;7.378;2024-03-07T00:19:11;98233.56;;;2.25;100.00
5872;BME280;2962;51.312;7.378;2024-03-07T00:21:40;98235.03;;;2.17;100.00
5872;BME280;2962;51.312;7.378;2024-03-07T00:24:05;98237.81;;;2.12;100.00
5872;BME280;2962;51.312;7.378;2024-03-07T00:26:30;98238.03;;;2.15;100.00
5872;BME280;2962;51.312;7.378;2024-03-07T00:28:55;98230.81;;;2.11;100.00
5872;BME280;2962;51.312;7.378;2024-03-07T00:31:21;98235.53;;;2.19;100.00
5872;BME280;2962;51.312;7.378;2024-03-07T00:33:46;98236.84;;;2.22;100.00
5872;BME280;2962;51.312;7.378;2024-03-07T00:36:11;98233.94;;;2.18;100.00
5872;BME280;2962;51.312;7.378;2024-03-07T00:38:37;98233.34;;;2.21;100.00
5872;BME280;2962;51.312;7.378;2024-03-07T00:41:02;98234.28;;;2.30;100.00
5872;BME280;2962;51.312;7.378;2024-03-07T00:43:28;98231.00;;;2.33;100.00
5872;BME280;2962;51.312;7.378;2024-03-07T00:45:53;98224.03;;;2.32;100.00
5872;BME280;2962;51.312;7.378;2024-03-07T00:48:18;98225.19;;;2.26;100.00
5872;BME280;2962;51.312;7.378;2024-03-07T00:50:44;98219.91;;;2.21;100.00
5872;BME280;2962;51.312;7.378;2024-03-07T00:53:09;98218.41;;;2.15;100.00
5872;BME280;2962;51.312;7.378;2024-03-07T00:55:35;98232.34;;;2.17;100.00
5872;BME280;2962;51.312;7.378;2024-03-07T00:58:00;98229.16;;;2.15;100.00
5872;BME280;2962;51.312;7.378;2024-03-07T01:00:25;98216.69;;;2.05;100.00
5872;BME280;2962;51.312;7.378;2024-03-07T01:02:51;98210.09;;;1.98;100.00
5872;BME280;2962;51.312;7.378;2024-03-07T01:05:18;98227.44;;;2.05;100.00
5872;BME280;2962;51.312;7.378;2024-03-07T01:07:44;98220.75;;;2.03;100.00
5872;BME280;2962;51.312;7.378;2024-03-07T01:10:12;98221.94;;;1.97;100.00
5872;BME280;2962;51.312;7.378;2024-03-07T01:12:37;98216.13;;;1.89;100.00
5872;BME280;2962;51.312;7.378;2024-03-07T01:15:03;98231.06;;;1.95;100.00
5872;BME280;2962;51.312;7.378;2024-03-07T01:17:32;98218.72;;;1.94;100.00
5872;BME280;2962;51.312;7.378;2024-03-07T01:19:58;98218.72;;;1.94;100.00
5872;BME280;2962;51.312;7.378;2024-03-07T01:22:23;98205.75;;;1.83;100.00
5872;BME280;2962;51.312;7.378;2024-03-07T01:24:49;98225.88;;;1.85;100.00
5872;BME280;2962;51.312;7.378;2024-03-07T01:27:16;98227.59;;;1.76;100.00
5872;BME280;2962;51.312;7.378;2024-03-07T01:29:41;98201.41;;;1.68;100.00
5872;BME280;2962;51.312;7.378;2024-03-07T01:32:06;98220.34;;;1.77;100.00
5872;BME280;2962;51.312;7.378;2024-03-07T01:34:32;98214.53;;;1.88;100.00
5872;BME280;2962;51.312;7.378;2024-03-07T01:36:57;98190.78;;;1.77;100.00
5872;BME280;2962;51.312;7.378;2024-03-07T01:39:22;98204.88;;;1.87;100.00
5872;BME280;2962;51.312;7.378;2024-03-07T01:41:48;98217.00;;;1.85;100.00
5872;BME280;2962;51.312;7.378;2024-03-07T01:44:13;98208.22;;;1.79;100.00
5872;BME280;2962;51.312;7.378;2024-03-07T01:46:39;98206.91;;;1.77;100.00
5872;BME280;2962;51.312;7.378;2024-03-07T01:49:07;98193.28;;;1.54;100.00
5872;BME280;2962;51.312;7.378;2024-03-07T01:51:34;98200.91;;;1.66;100.00
5872;BME280;2962;51.312;7.378;2024-03-07T01:54:01;98196.38;;;1.61;100.00
5872;BME280;2962;51.312;7.378;2024-03-07T01:56:27;98203.72;;;1.75;100.00
5872;BME280;2962;51.312;7.378;2024-03-07T01:58:53;98196.31;;;1.66;100.00
5872;BME280;2962;51.312;7.378;2024-03-07T02:01:19;98205.63;;;1.74;100.00
5872;BME280;2962;51.312;7.378;2024-03-07T02:03:45;98200.50;;;1.73;100.00
5872;BME280;2962;51.312;7.378;2024-03-07T02:06:11;98188.19;;;1.71;100.00
5872;BME280;2962;51.312;7.378;2024-03-07T02:08:37;98189.28;;;1.70;100.00
5872;BME280;2962;51.312;7.378;2024-03-07T02:11:02;98192.47;;;1.73;100.00
5872;BME280;2962;51.312;7.378;2024-03-07T02:13:27;98195.88;;;1.78;100.00
5872;BME280;2962;51.312;7.378;2024-03-07T02:15:53;98188.91;;;1.77;100.00
5872;BME280;2962;51.312;7.378;2024-03-07T02:18:20;98195.44;;;1.71;100.00
5872;BME280;2962;51.312;7.378;2024-03-07T02:20:46;98193.91;;;1.65;100.00
5872;BME280;2962;51.312;7.378;2024-03-07T02:23:11;98185.94;;;1.60;100.00
5872;BME280;2962;51.312;7.378;2024-03-07T02:25:37;98168.09;;;1.50;100.00
5872;BME280;2962;51.312;7.378;2024-03-07T02:28:03;98190.38;;;1.51;100.00
5872;BME280;2962;51.312;7.378;2024-03-07T02:30:29;98178.09;;;1.44;100.00
5872;BME280;2962;51.312;7.378;2024-03-07T02:32:57;98174.31;;;1.45;100.00
5872;BME280;2962;51.312;7.378;2024-03-07T02:35:24;98184.28;;;1.45;100.00
5872;BME280;2962;51.312;7.378;2024-03-07T02:37:49;98178.41;;;1.43;100.00
5872;BME280;2962;51.312;7.378;2024-03-07T02:40:15;98176.78;;;1.42;100.00
5872;BME280;2962;51.312;7.378;2024-03-07T02:42:41;98173.31;;;1.41;100.00
5872;BME280;2962;51.312;7.378;2024-03-07T02:45:06;98181.16;;;1.38;100.00
5872;BME280;2962;51.312;7.378;2024-03-07T02:47:32;98173.88;;;1.38;100.00
5872;BME280;2962;51.312;7.378;2024-03-07T02:49:57;98174.41;;;1.40;100.00
5872;BME280;2962;51.312;7.378;2024-03-07T02:52:22;98173.25;;;1.46;100.00
5872;BME280;2962;51.312;7.378;2024-03-07T02:54:48;98172.66;;;1.50;100.00
5872;BME280;2962;51.312;7.378;2024-03-07T02:57:13;98155.63;;;1.40;100.00
5872;BME280;2962;51.312;7.378;2024-03-07T02:59:38;98152.41;;;1.38;100.00
5872;BME280;2962;51.312;7.378;2024-03-07T03:02:04;98158.88;;;1.37;100.00
5872;BME280;2962;51.312;7.378;2024-03-07T03:04:30;98152.94;;;1.40;100.00
5872;BME280;2962;51.312;7.378;2024-03-07T03:06:56;98161.41;;;1.48;100.00
5872;BME280;2962;51.312;7.378;2024-03-07T03:09:21;98158.53;;;1.44;100.00
5872;BME280;2962;51.312;7.378;2024-03-07T03:11:46;98157.19;;;1.41;100.00
5872;BME280;2962;51.312;7.378;2024-03-07T03:14:12;98153.00;;;1.35;100.00
5872;BME280;2962;51.312;7.378;2024-03-07T03:16:41;98149.88;;;1.28;100.00
5872;BME280;2962;51.312;7.378;2024-03-07T03:19:07;98146.19;;;1.24;100.00
5872;BME280;2962;51.312;7.378;2024-03-07T03:21:34;98137.16;;;1.15;100.00
5872;BME280;2962;51.312;7.378;2024-03-07T03:23:59;98147.41;;;1.13;100.00
5872;BME280;2962;51.312;7.378;2024-03-07T03:26:24;98138.78;;;1.16;100.00
5872;BME280;2962;51.312;7.378;2024-03-07T03:28:49;98129.66;;;1.17;100.00
5872;BME280;2962;51.312;7.378;2024-03-07T03:31:15;98140.94;;;1.14;100.00
5872;BME280;2962;51.312;7.378;2024-03-07T03:33:41;98142.03;;;1.13;100.00
5872;BME280;2962;51.312;7.378;2024-03-07T03:36:07;98134.56;;;1.10;100.00
5872;BME280;2962;51.312;7.378;2024-03-07T03:38:32;98132.97;;;1.09;100.00
5872;BME280;2962;51.312;7.378;2024-03-07T03:40:57;98118.19;;;0.92;100.00
5872;BME280;2962;51.312;7.378;2024-03-07T03:43:22;98116.56;;;0.91;100.00
5872;BME280;2962;51.312;7.378;2024-03-07T03:45:48;98118.59;;;1.00;100.00
5872;BME280;2962;51.312;7.378;2024-03-07T03:48:14;98126.06;;;1.03;100.00
5872;BME280;2962;51.312;7.378;2024-03-07T03:50:39;98127.97;;;1.02;100.00
5872;BME280;2962;51.312;7.378;2024-03-07T03:53:04;98130.34;;;1.04;100.00
5872;BME280;2962;51.312;7.378;2024-03-07T03:55:31;98130.34;;;1.04;100.00
5872;BME280;2962;51.312;7.378;2024-03-07T03:57:57;98116.06;;;0.89;100.00
5872;BME280;2962;51.312;7.378;2024-03-07T04:00:22;98134.13;;;1.03;100.00
5872;BME280;2962;51.312;7.378;2024-03-07T04:02:48;98119.19;;;0.96;100.00
5872;BME280;2962;51.312;7.378;2024-03-07T04:05:15;98125.06;;;0.98;100.00
5872;BME280;2962;51.312;7.378;2024-03-07T04:07:41;98131.06;;;0.90;100.00
5872;BME280;2962;51.312;7.378;2024-03-07T04:10:08;98126.28;;;0.87;100.00
5872;BME280;2962;51.312;7.378;2024-03-07T04:12:34;98132.44;;;0.88;100.00
5872;BME280;2962;51.312;7.378;2024-03-07T04:15:00;98133.44;;;0.92;100.00
5872;BME280;2962;51.312;7.378;2024-03-07T04:17:26;98133.59;;;0.82;100.00
5872;BME280;2962;51.312;7.378;2024-03-07T04:19:51;98128.88;;;0.73;100.00
5872;BME280;2962;51.312;7.378;2024-03-07T04:22:16;98117.06;;;0.75;100.00
5872;BME280;2962;51.312;7.378;2024-03-07T04:24:44;98134.16;;;0.79;100.00
5872;BME280;2962;51.312;7.378;2024-03-07T04:27:09;98124.31;;;0.74;100.00
5872;BME280;2962;51.312;7.378;2024-03-07T04:29:35;98125.81;;;0.80;100.00
5872;BME280;2962;51.312;7.378;2024-03-07T04:32:01;98126.13;;;0.79;100.00
5872;BME280;2962;51.312;7.378;2024-03-07T04:34:28;98130.16;;;0.76;100.00
5872;BME280;2962;51.312;7.378;2024-03-07T04:36:56;98122.91;;;0.77;100.00
5872;BME280;2962;51.312;7.378;2024-03-07T04:39:21;98123.22;;;0.75;100.00
5872;BME280;2962;51.312;7.378;2024-03-07T04:41:58;98120.34;;;0.90;100.00
5872;BME280;2962;51.312;7.378;2024-03-07T04:44:25;98119.09;;;0.83;100.00
5872;BME280;2962;51.312;7.378;2024-03-07T04:46:50;98126.47;;;0.72;100.00
5872;BME280;2962;51.312;7.378;2024-03-07T04:49:23;98111.09;;;0.59;100.00
5872;BME280;2962;51.312;7.378;2024-03-07T04:51:59;98110.22;;;0.63;100.00
5872;BME280;2962;51.312;7.378;2024-03-07T04:54:25;98121.09;;;0.72;100.00
5872;BME280;2962;51.312;7.378;2024-03-07T04:56:52;98121.63;;;0.74;100.00
5872;BME280;2962;51.312;7.378;2024-03-07T04:59:19;98118.50;;;0.67;100.00
5872;BME280;2962;51.312;7.378;2024-03-07T05:01:45;98112.03;;;0.68;100.00
5872;BME280;2962;51.312;7.378;2024-03-07T05:04:12;98120.72;;;0.60;100.00
5872;BME280;2962;51.312;7.378;2024-03-07T05:06:38;98109.88;;;0.46;100.00
5872;BME280;2962;51.312;7.378;2024-03-07T05:09:05;98122.47;;;0.45;100.00
5872;BME280;2962;51.312;7.378;2024-03-07T05:11:32;98122.00;;;0.43;100.00
5872;BME280;2962;51.312;7.378;2024-03-07T05:13:58;98111.13;;;0.30;100.00
5872;BME280;2962;51.312;7.378;2024-03-07T05:16:24;98112.97;;;0.34;100.00
5872;BME280;2962;51.312;7.378;2024-03-07T05:18:50;98114.38;;;0.27;100.00
5872;BME280;2962;51.312;7.378;2024-03-07T05:21:16;98109.31;;;0.25;100.00
5872;BME280;2962;51.312;7.378;2024-03-07T05:24:03;98114.06;;;0.33;100.00
5872;BME280;2962;51.312;7.378;2024-03-07T05:26:29;98112.72;;;0.31;100.00
5872;BME280;2962;51.312;7.378;2024-03-07T05:29:00;98110.41;;;0.24;100.00
5872;BME280;2962;51.312;7.378;2024-03-07T05:31:28;98105.59;;;0.21;100.00
5872;BME280;2962;51.312;7.378;2024-03-07T05:33:53;98115.88;;;0.14;100.00
5872;BME280;2962;51.312;7.378;2024-03-07T05:36:18;98119.56;;;0.18;100.00
5872;BME280;2962;51.312;7.378;2024-03-07T05:38:44;98110.81;;;0.12;100.00
5872;BME280;2962;51.312;7.378;2024-03-07T05:41:10;98110.59;;;0.04;100.00
5872;BME280;2962;51.312;7.378;2024-03-07T05:43:36;98105.22;;;0.09;100.00
5872;BME280;2962;51.312;7.378;2024-03-07T05:46:02;98101.53;;;-0.01;100.00
5872;BME280;2962;51.312;7.378;2024-03-07T05:48:28;98122.88;;;0.10;100.00
5872;BME280;2962;51.312;7.378;2024-03-07T05:50:53;98122.13;;;0.04;100.00
5872;BME280;2962;51.312;7.378;2024-03-07T05:53:18;98121.31;;;0.04;100.00
5872;BME280;2962;51.312;7.378;2024-03-07T05:55:44;98114.78;;;0.15;100.00
5872;BME280;2962;51.312;7.378;2024-03-07T05:58:10;98125.56;;;0.10;100.00
5872;BME280;2962;51.312;7.378;2024-03-07T06:00:36;98123.44;;;0.07;100.00
5872;BME280;2962;51.312;7.378;2024-03-07T06:03:04;98119.72;;;0.03;100.00
5872;BME280;2962;51.312;7.378;2024-03-07T06:05:30;98122.16;;;-0.01;100.00
5872;BME280;2962;51.312;7.378;2024-03-07T06:07:56;98115.78;;;-0.05;100.00
5872;BME280;2962;51.312;7.378;2024-03-07T06:10:21;98129.34;;;0.04;100.00
5872;BME280;2962;51.312;7.378;2024-03-07T06:12:50;98113.88;;;-0.05;100.00
5872;BME280;2962;51.312;7.378;2024-03-07T06:15:15;98113.38;;;-0.07;100.00
5872;BME280;2962;51.312;7.378;2024-03-07T06:17:40;98116.78;;;0.04;100.00
5872;BME280;2962;51.312;7.378;2024-03-07T06:20:06;98109.53;;;0.05;100.00
5872;BME280;2962;51.312;7.378;2024-03-07T06:22:49;98127.94;;;0.11;100.00
5872;BME280;2962;51.312;7.378;2024-03-07T06:25:18;98123.50;;;0.02;100.00
5872;BME280;2962;51.312;7.378;2024-03-07T06:27:59;98128.00;;;0.06;100.00
5872;BME280;2962;51.312;7.378;2024-03-07T06:30:24;98129.81;;;0.11;100.00
5872;BME280;2962;51.312;7.378;2024-03-07T06:32:51;98125.84;;;0.08;100.00
5872;BME280;2962;51.312;7.378;2024-03-07T06:35:16;98129.50;;;0.17;100.00
5872;BME280;2962;51.312;7.378;2024-03-07T06:37:41;98121.16;;;0.19;100.00
5872;BME280;2962;51.312;7.378;2024-03-07T06:40:07;98127.03;;;0.21;100.00
5872;BME280;2962;51.312;7.378;2024-03-07T06:42:35;98127.03;;;0.21;100.00
5872;BME280;2962;51.312;7.378;2024-03-07T06:45:03;98129.34;;;0.33;100.00
5872;BME280;2962;51.312;7.378;2024-03-07T06:47:28;98118.84;;;0.36;100.00
5872;BME280;2962;51.312;7.378;2024-03-07T06:49:53;98132.88;;;0.52;100.00
5872;BME280;2962;51.312;7.378;2024-03-07T06:52:18;98117.13;;;0.45;100.00
5872;BME280;2962;51.312;7.378;2024-03-07T06:54:44;98125.06;;;0.56;100.00
5872;BME280;2962;51.312;7.378;2024-03-07T06:57:09;98123.16;;;0.56;100.00
5872;BME280;2962;51.312;7.378;2024-03-07T06:59:35;98127.03;;;0.69;100.00
5872;BME280;2962;51.312;7.378;2024-03-07T07:02:01;98127.91;;;0.64;100.00
5872;BME280;2962;51.312;7.378;2024-03-07T07:04:27;98135.91;;;0.69;100.00
5872;BME280;2962;51.312;7.378;2024-03-07T07:07:00;98128.06;;;0.73;100.00
5872;BME280;2962;51.312;7.378;2024-03-07T07:09:26;98131.06;;;0.90;100.00
5872;BME280;2962;51.312;7.378;2024-03-07T07:11:51;98128.38;;;0.90;100.00
5872;BME280;2962;51.312;7.378;2024-03-07T07:14:17;98132.31;;;0.98;100.00
5872;BME280;2962;51.312;7.378;2024-03-07T07:16:45;98137.81;;;1.07;100.00
5872;BME280;2962;51.312;7.378;2024-03-07T07:19:11;98117.38;;;1.11;100.00
5872;BME280;2962;51.312;7.378;2024-03-07T07:21:38;98128.53;;;1.18;100.00
5872;BME280;2962;51.312;7.378;2024-03-07T07:24:04;98131.91;;;1.29;100.00
5872;BME280;2962;51.312;7.378;2024-03-07T07:26:29;98141.63;;;1.43;100.00
5872;BME280;2962;51.312;7.378;2024-03-07T07:28:54;98138.84;;;1.49;100.00
5872;BME280;2962;51.312;7.378;2024-03-07T07:31:20;98137.16;;;1.53;100.00
5872;BME280;2962;51.312;7.378;2024-03-07T07:33:45;98141.50;;;1.67;100.00
5872;BME280;2962;51.312;7.378;2024-03-07T07:36:11;98122.69;;;1.67;100.00
5872;BME280;2962;51.312;7.378;2024-03-07T07:38:36;98124.28;;;1.68;100.00
5872;BME280;2962;51.312;7.378;2024-03-07T07:41:01;98123.56;;;1.82;100.00
5872;BME280;2962;51.312;7.378;2024-03-07T07:43:27;98118.97;;;1.82;100.00
5872;BME280;2962;51.312;7.378;2024-03-07T07:45:53;98121.41;;;1.98;100.00
5872;BME280;2962;51.312;7.378;2024-03-07T07:48:19;98101.06;;;1.91;100.00
5872;BME280;2962;51.312;7.378;2024-03-07T07:50:44;98107.09;;;2.16;100.00
5872;BME280;2962;51.312;7.378;2024-03-07T07:53:09;98106.53;;;2.33;100.00
5872;BME280;2962;51.312;7.378;2024-03-07T07:55:36;98084.31;;;2.27;100.00
5872;BME280;2962;51.312;7.378;2024-03-07T07:58:01;98094.66;;;2.48;100.00
5872;BME280;2962;51.312;7.378;2024-03-07T08:00:29;98087.09;;;2.63;100.00
5872;BME280;2962;51.312;7.378;2024-03-07T08:05:26;98086.84;;;2.87;100.00
5872;BME280;2962;51.312;7.378;2024-03-07T08:07:56;98083.63;;;2.99;100.00
5872;BME280;2962;51.312;7.378;2024-03-07T08:10:24;98074.16;;;3.02;100.00
5872;BME280;2962;51.312;7.378;2024-03-07T08:12:51;98082.44;;;3.05;100.00
5872;BME280;2962;51.312;7.378;2024-03-07T08:15:16;98077.25;;;3.09;100.00
5872;BME280;2962;51.312;7.378;2024-03-07T08:17:46;98069.78;;;3.06;100.00
5872;BME280;2962;51.312;7.378;2024-03-07T08:20:16;98084.72;;;3.12;100.00
5872;BME280;2962;51.312;7.378;2024-03-07T08:22:44;98066.53;;;3.17;100.00
5872;BME280;2962;51.312;7.378;2024-03-07T08:25:10;98074.44;;;3.36;100.00
5872;BME280;2962;51.312;7.378;2024-03-07T08:27:37;98083.16;;;3.56;100.00
5872;BME280;2962;51.312;7.378;2024-03-07T08:30:04;98081.84;;;3.76;100.00
5872;BME280;2962;51.312;7.378;2024-03-07T08:32:32;98073.28;;;3.74;100.00
5872;BME280;2962;51.312;7.378;2024-03-07T08:34:59;98071.66;;;3.95;100.00
5872;BME280;2962;51.312;7.378;2024-03-07T08:37:24;98067.16;;;3.82;100.00
5872;BME280;2962;51.312;7.378;2024-03-07T08:39:50;98067.06;;;3.96;100.00
5872;BME280;2962;51.312;7.378;2024-03-07T08:42:17;98081.94;;;3.84;100.00
5872;BME280;2962;51.312;7.378;2024-03-07T08:44:42;98086.00;;;4.04;100.00
5872;BME280;2962;51.312;7.378;2024-03-07T08:47:08;98086.97;;;4.57;100.00
5872;BME280;2962;51.312;7.378;2024-03-07T08:49:35;98094.22;;;4.87;100.00
5872;BME280;2962;51.312;7.378;2024-03-07T08:52:00;98078.53;;;5.16;100.00
5872;BME280;2962;51.312;7.378;2024-03-07T08:54:26;98075.50;;;5.00;100.00
5872;BME280;2962;51.312;7.378;2024-03-07T08:56:51;98084.84;;;4.85;100.00
5872;BME280;2962;51.312;7.378;2024-03-07T08:59:17;98077.25;;;5.13;100.00
5872;BME280;2962;51.312;7.378;2024-03-07T09:01:43;98075.63;;;5.03;100.00
5872;BME280;2962;51.312;7.378;2024-03-07T09:04:09;98069.69;;;4.58;100.00
5872;BME280;2962;51.312;7.378;2024-03-07T09:06:34;98083.75;;;4.95;100.00
5872;BME280;2962;51.312;7.378;2024-03-07T09:08:59;98083.56;;;4.74;100.00
5872;BME280;2962;51.312;7.378;2024-03-07T09:11:25;98060.50;;;4.59;100.00
5872;BME280;2962;51.312;7.378;2024-03-07T09:13:50;98063.59;;;5.09;100.00
5872;BME280;2962;51.312;7.378;2024-03-07T09:16:15;98068.03;;;5.05;100.00
5872;BME280;2962;51.312;7.378;2024-03-07T09:18:43;98063.09;;;4.90;100.00
5872;BME280;2962;51.312;7.378;2024-03-07T09:21:09;98069.44;;;4.85;100.00
5872;BME280;2962;51.312;7.378;2024-03-07T09:23:34;98072.66;;;5.31;100.00
5872;BME280;2962;51.312;7.378;2024-03-07T09:25:59;98064.38;;;5.45;100.00
5872;BME280;2962;51.312;7.378;2024-03-07T09:28:25;98050.25;;;5.39;100.00
5872;BME280;2962;51.312;7.378;2024-03-07T09:30:50;98053.19;;;5.72;100.00
5872;BME280;2962;51.312;7.378;2024-03-07T09:33:16;98059.56;;;5.85;100.00
5872;BME280;2962;51.312;7.378;2024-03-07T09:35:44;98058.75;;;5.84;100.00
5872;BME280;2962;51.312;7.378;2024-03-07T09:38:10;98053.88;;;5.52;100.00
5872;BME280;2962;51.312;7.378;2024-03-07T09:40:36;98051.31;;;5.64;100.00
5872;BME280;2962;51.312;7.378;2024-03-07T09:43:02;98045.63;;;5.48;100.00
5872;BME280;2962;51.312;7.378;2024-03-07T09:45:29;98061.13;;;5.95;100.00
5872;BME280;2962;51.312;7.378;2024-03-07T09:47:57;98052.84;;;5.91;100.00
5872;BME280;2962;51.312;7.378;2024-03-07T09:50:23;98056.84;;;5.85;100.00
5872;BME280;2962;51.312;7.378;2024-03-07T09:52:55;98045.31;;;6.14;100.00
5872;BME280;2962;51.312;7.378;2024-03-07T09:55:21;98042.53;;;5.84;100.00
5872;BME280;2962;51.312;7.378;2024-03-07T09:57:49;98053.97;;;5.99;100.00
5872;BME280;2962;51.312;7.378;2024-03-07T10:00:19;98054.16;;;5.94;100.00
5872;BME280;2962;51.312;7.378;2024-03-07T10:02:54;98056.66;;;6.07;100.00
5872;BME280;2962;51.312;7.378;2024-03-07T10:05:22;98049.97;;;6.05;100.00
5872;BME280;2962;51.312;7.378;2024-03-07T10:07:48;98044.91;;;5.95;100.00
5872;BME280;2962;51.312;7.378;2024-03-07T10:10:13;98053.19;;;6.36;100.00
5872;BME280;2962;51.312;7.378;2024-03-07T10:12:38;98055.78;;;6.83;100.00
5872;BME280;2962;51.312;7.378;2024-03-07T10:15:04;98045.88;;;6.88;100.00
5872;BME280;2962;51.312;7.378;2024-03-07T10:17:38;98050.69;;;7.12;100.00
5872;BME280;2962;51.312;7.378;2024-03-07T10:20:04;98043.53;;;7.07;100.00
5872;BME280;2962;51.312;7.378;2024-03-07T10:22:35;98052.78;;;7.06;100.00
5872;BME280;2962;51.312;7.378;2024-03-07T10:25:03;98048.44;;;6.63;100.00
5872;BME280;2962;51.312;7.378;2024-03-07T10:27:28;98048.13;;;6.26;100.00
5872;BME280;2962;51.312;7.378;2024-03-07T10:29:54;98047.13;;;6.40;100.00
5872;BME280;2962;51.312;7.378;2024-03-07T10:32:20;98042.72;;;6.26;100.00
5872;BME280;2962;51.312;7.378;2024-03-07T10:34:55;98039.38;;;6.29;100.00
5872;BME280;2962;51.312;7.378;2024-03-07T10:37:20;98035.50;;;6.69;100.00
5872;BME280;2962;51.312;7.378;2024-03-07T10:39:48;98034.34;;;6.99;100.00
5872;BME280;2962;51.312;7.378;2024-03-07T10:42:15;98031.78;;;7.24;100.00
5872;BME280;2962;51.312;7.378;2024-03-07T10:44:45;98028.75;;;8.04;100.00
5872;BME280;2962;51.312;7.378;2024-03-07T10:47:16;98030.22;;;8.01;100.00
5872;BME280;2962;51.312;7.378;2024-03-07T10:49:59;98029.19;;;7.94;100.00
5872;BME280;2962;51.312;7.378;2024-03-07T10:52:39;98027.34;;;7.86;100.00
5872;BME280;2962;51.312;7.378;2024-03-07T10:55:37;98035.66;;;7.68;100.00
5872;BME280;2962;51.312;7.378;2024-03-07T10:58:20;98033.00;;;7.47;100.00
5872;BME280;2962;51.312;7.378;2024-03-07T11:00:49;98033.28;;;7.33;100.00
5872;BME280;2962;51.312;7.378;2024-03-07T11:03:17;98026.94;;;7.96;100.00
5872;BME280;2962;51.312;7.378;2024-03-07T11:05:45;98029.47;;;8.74;100.00
5872;BME280;2962;51.312;7.378;2024-03-07T11:08:12;98015.19;;;8.28;100.00
5872;BME280;2962;51.312;7.378;2024-03-07T11:10:38;98011.03;;;8.55;100.00
5872;BME280;2962;51.312;7.378;2024-03-07T11:13:04;98020.38;;;8.33;100.00
5872;BME280;2962;51.312;7.378;2024-03-07T11:15:32;98013.28;;;8.66;100.00
5872;BME280;2962;51.312;7.378;2024-03-07T11:17:58;98006.13;;;8.00;100.00
5872;BME280;2962;51.312;7.378;2024-03-07T11:20:25;98009.03;;;7.95;100.00
5872;BME280;2962;51.312;7.378;2024-03-07T11:22:51;98004.34;;;8.53;100.00
5872;BME280;2962;51.312;7.378;2024-03-07T11:25:20;97997.63;;;9.27;100.00
5872;BME280;2962;51.312;7.378;2024-03-07T11:27:57;97994.00;;;10.27;100.00
5872;BME280;2962;51.312;7.378;2024-03-07T11:30:24;97993.97;;;10.59;100.00
5872;BME280;2962;51.312;7.378;2024-03-07T11:32:50;98002.06;;;11.10;100.00
5872;BME280;2962;51.312;7.378;2024-03-07T11:35:19;97997.72;;;11.24;100.00
5872;BME280;2962;51.312;7.378;2024-03-07T11:37:56;97981.91;;;10.95;100.00
5872;BME280;2962;51.312;7.378;2024-03-07T11:42:50;97988.28;;;11.41;100.00
5872;BME280;2962;51.312;7.378;2024-03-07T11:45:17;97986.41;;;10.87;100.00
5872;BME280;2962;51.312;7.378;2024-03-07T11:47:56;97976.00;;;10.22;100.00
5872;BME280;2962;51.312;7.378;2024-03-07T11:50:38;97978.69;;;9.75;100.00
5872;BME280;2962;51.312;7.378;2024-03-07T11:53:04;97981.84;;;9.61;100.00
5872;BME280;2962;51.312;7.378;2024-03-07T11:55:37;97974.69;;;9.57;100.00
5872;BME280;2962;51.312;7.378;2024-03-07T11:58:20;97968.50;;;8.88;100.00
5872;BME280;2962;51.312;7.378;2024-03-07T12:00:50;97964.78;;;8.80;100.00
5872;BME280;2962;51.312;7.378;2024-03-07T12:03:20;97955.03;;;8.26;100.00
5872;BME280;2962;51.312;7.378;2024-03-07T12:05:51;97950.72;;;7.76;100.00
5872;BME280;2962;51.312;7.378;2024-03-07T12:08:19;97959.41;;;7.70;100.00
5872;BME280;2962;51.312;7.378;2024-03-07T12:10:48;97942.91;;;7.29;100.00
5872;BME280;2962;51.312;7.378;2024-03-07T12:13:17;97940.66;;;7.31;100.00
5872;BME280;2962;51.312;7.378;2024-03-07T12:15:44;97950.56;;;7.15;100.00
5872;BME280;2962;51.312;7.378;2024-03-07T12:18:10;97946.06;;;6.98;100.00
5872;BME280;2962;51.312;7.378;2024-03-07T12:20:36;97944.41;;;7.06;100.00
5872;BME280;2962;51.312;7.378;2024-03-07T12:23:03;97944.44;;;6.64;100.00
5872;BME280;2962;51.312;7.378;2024-03-07T12:25:31;97942.13;;;6.75;100.00
5872;BME280;2962;51.312;7.378;2024-03-07T12:28:09;97930.97;;;6.55;100.00
5872;BME280;2962;51.312;7.378;2024-03-07T12:30:54;97937.94;;;6.35;100.00
5872;BME280;2962;51.312;7.378;2024-03-07T12:33:20;97934.59;;;6.39;100.00
5872;BME280;2962;51.312;7.378;2024-03-07T12:35:49;97942.78;;;6.51;100.00
5872;BME280;2962;51.312;7.378;2024-03-07T12:38:17;97928.59;;;6.54;100.00
5872;BME280;2962;51.312;7.378;2024-03-07T12:40:43;97921.84;;;6.39;100.00
5872;BME280;2962;51.312;7.378;2024-03-07T12:43:19;97928.31;;;6.47;100.00
5872;BME280;2962;51.312;7.378;2024-03-07T12:45:48;97918.00;;;6.40;100.00
5872;BME280;2962;51.312;7.378;2024-03-07T12:48:13;97922.56;;;6.27;100.00
5872;BME280;2962;51.312;7.378;2024-03-07T12:50:40;97920.03;;;5.84;100.00
5872;BME280;2962;51.312;7.378;2024-03-07T12:53:06;97922.75;;;5.84;100.00
5872;BME280;2962;51.312;7.378;2024-03-07T12:55:39;97921.94;;;5.83;100.00
5872;BME280;2962;51.312;7.378;2024-03-07T12:58:09;97924.66;;;5.83;100.00
5872;BME280;2962;51.312;7.378;2024-03-07T13:00:35;97927.06;;;5.85;100.00
5872;BME280;2962;51.312;7.378;2024-03-07T13:03:00;97924.47;;;5.97;100.00
5872;BME280;2962;51.312;7.378;2024-03-07T13:05:26;97918.78;;;6.20;100.00
5872;BME280;2962;51.312;7.378;2024-03-07T13:07:51;97914.88;;;6.29;100.00
5872;BME280;2962;51.312;7.378;2024-03-07T13:10:17;97915.53;;;6.26;100.00
5872;BME280;2962;51.312;7.378;2024-03-07T13:12:44;97907.84;;;6.58;100.00
5872;BME280;2962;51.312;7.378;2024-03-07T13:15:11;97900.72;;;6.32;100.00
5872;BME280;2962;51.312;7.378;2024-03-07T13:17:37;97912.53;;;6.28;100.00
5872;BME280;2962;51.312;7.378;2024-03-07T13:20:02;97895.53;;;6.19;100.00
5872;BME280;2962;51.312;7.378;2024-03-07T13:22:28;97909.47;;;6.29;100.00
5872;BME280;2962;51.312;7.378;2024-03-07T13:24:53;97894.59;;;6.15;100.00
5872;BME280;2962;51.312;7.378;2024-03-07T13:27:19;97894.16;;;6.33;100.00